Time;durP1;ratioP1;P1;durP2;ratioP2;P2;SDS_P1;SDS_P2;PMS_P1;PMS_P2;Temp;Humidity;BMP_temperature;BMP_pressure;BME280_temperature;BME280_humidity;BME280_pressure;Samples;Min_cycle;Max_cycle;Signal;HPM_P1;HPM_P2
2022/05/29 00:03:56;;;;;;;4.33;2.20;;;12.40;62.90;;;;;;20977854;28;20289;-66
2022/05/29 00:14:00;;;;;;;4.00;2.27;;;12.30;64.10;;;;;;21004386;28;20309;-70
2022/05/29 00:24:03;;;;;;;3.00;2.27;;;12.10;64.60;;;;;;21002931;28;20630;-73
2022/05/29 00:34:05;;;;;;;4.13;2.37;;;12.10;65.30;;;;;;21002291;28;20249;-64
2022/05/29 00:44:27;;;;;;;3.00;2.07;;;12.20;65.50;;;;;;21001743;28;20277;-66
2022/05/29 00:54:42;;;;;;;3.90;2.17;;;12.00;66.20;;;;;;21000714;28;20216;-62
2022/05/29 01:04:44;;;;;;;5.17;2.20;;;12.00;66.20;;;;;;20999617;28;20235;-62
2022/05/29 01:15:08;;;;;;;4.90;2.43;;;11.90;66.90;;;;;;20999243;28;20665;-64
2022/05/29 01:25:28;;;;;;;5.73;2.60;;;11.90;67.20;;;;;;20998025;28;20310;-63
2022/05/29 01:35:32;;;;;;;4.23;2.20;;;11.70;67.50;;;;;;20997810;28;20212;-74
2022/05/29 01:45:53;;;;;;;3.90;2.20;;;11.70;67.90;;;;;;20997833;28;20584;-66
2022/05/29 01:55:59;;;;;;;3.50;2.10;;;11.70;68.10;;;;;;20996544;28;20218;-66
2022/05/29 02:06:13;;;;;;;4.20;2.33;;;11.70;68.30;;;;;;20995421;28;20672;-66
2022/05/29 02:16:22;;;;;;;3.07;2.00;;;11.50;68.60;;;;;;20995266;28;20216;-63
2022/05/29 02:26:28;;;;;;;10.83;2.43;;;11.40;68.70;;;;;;20994946;28;20241;-64
2022/05/29 02:36:35;;;;;;;5.00;2.27;;;11.30;69.30;;;;;;20993919;28;20697;-63
2022/05/29 02:46:52;;;;;;;5.53;2.70;;;11.30;69.30;;;;;;20993612;28;20231;-71
2022/05/29 02:56:55;;;;;;;3.17;2.43;;;11.10;69.70;;;;;;20992556;28;20292;-68
2022/05/29 03:07:35;;;;;;;4.33;2.27;;;11.10;70.20;;;;;;20993074;28;20235;-67
2022/05/29 03:17:52;;;;;;;4.13;2.47;;;11.10;70.50;;;;;;21004491;28;20216;-65
2022/05/29 03:27:57;;;;;;;3.83;3.00;;;11.10;71.40;;;;;;21007756;28;20238;-69
2022/05/29 03:38:01;;;;;;;6.00;2.63;;;11.10;72.30;;;;;;21006897;28;20286;-78
2022/05/29 03:48:03;;;;;;;8.37;3.43;;;11.20;72.90;;;;;;21006014;28;20241;-62
2022/05/29 03:58:05;;;;;;;5.67;3.00;;;11.20;73.20;;;;;;21005911;28;20215;-61
2022/05/29 04:18:28;;;;;;;5.87;2.33;;;11.50;73.50;;;;;;21004137;28;20253;-62
2022/05/29 04:28:29;;;;;;;6.23;2.40;;;11.60;73.40;;;;;;21002245;28;20287;-62
2022/05/29 04:38:31;;;;;;;5.90;2.60;;;11.70;73.20;;;;;;21009156;28;20233;-74
2022/05/29 04:48:33;;;;;;;10.53;4.30;;;12.00;72.80;;;;;;21003844;28;20234;-78
2022/05/29 04:58:34;;;;;;;3.83;2.00;;;12.10;72.90;;;;;;21001019;28;20209;-73
2022/05/29 05:08:36;;;;;;;7.20;2.30;;;12.10;73.30;;;;;;20999811;28;20227;-68
2022/05/29 05:18:38;;;;;;;4.47;2.27;;;12.10;73.80;;;;;;20998788;28;20664;-68
2022/05/29 05:28:40;;;;;;;8.83;2.60;;;12.30;74.00;;;;;;20998005;28;20243;-72
2022/05/29 05:38:42;;;;;;;6.73;3.17;;;12.40;74.80;;;;;;20996530;28;20200;-63
2022/05/29 05:48:44;;;;;;;7.43;2.60;;;12.30;76.10;;;;;;20996775;28;20634;-74
2022/05/29 05:58:46;;;;;;;8.03;2.73;;;12.30;77.90;;;;;;20999495;28;20207;-72
2022/05/29 06:08:48;;;;;;;5.53;2.30;;;12.30;79.00;;;;;;20996203;28;21031;-81
2022/05/29 06:18:50;;;;;;;6.63;2.70;;;12.40;79.00;;;;;;20992779;28;20434;-71
2022/05/29 06:28:51;;;;;;;9.50;2.60;;;13.20;77.10;;;;;;20992469;28;20328;-71
2022/05/29 06:38:55;;;;;;;9.30;2.83;;;13.40;76.50;;;;;;20991727;28;20260;-71
2022/05/29 06:48:57;;;;;;;5.53;2.33;;;13.50;76.00;;;;;;21000238;28;20706;-71
2022/05/29 06:58:59;;;;;;;8.57;2.57;;;13.60;75.60;;;;;;21010331;28;20214;-77
2022/05/29 07:09:01;;;;;;;6.53;2.40;;;13.80;74.30;;;;;;21008868;28;20246;-71
2022/05/29 07:19:04;;;;;;;7.90;2.30;;;14.20;73.70;;;;;;21008117;28;20301;-72
2022/05/29 07:29:06;;;;;;;6.33;2.40;;;14.20;72.20;;;;;;21006998;28;20246;-71
2022/05/29 07:39:09;;;;;;;7.60;2.23;;;14.30;71.20;;;;;;21006377;28;20238;-69
2022/05/29 07:49:10;;;;;;;8.83;3.10;;;14.40;69.60;;;;;;21005503;28;20242;-71
2022/05/29 07:59:17;;;;;;;7.00;2.30;;;14.40;68.70;;;;;;21004822;28;20211;-71
2022/05/29 08:09:19;;;;;;;8.87;2.83;;;14.50;68.00;;;;;;21029327;28;20274;-72
2022/05/29 08:19:20;;;;;;;8.63;2.43;;;14.60;67.30;;;;;;21072461;28;20214;-63
2022/05/29 08:39:42;;;;;;;6.10;1.90;;;15.00;66.70;;;;;;21045948;28;20204;-64
2022/05/29 08:49:47;;;;;;;7.70;2.90;;;15.50;65.60;;;;;;21083042;28;20240;-69
2022/05/29 09:00:20;;;;;;;11.47;2.23;;;16.00;64.20;;;;;;21084020;28;20207;-71
2022/05/29 09:10:34;;;;;;;8.00;2.20;;;16.00;61.90;;;;;;21011013;28;20237;-64
2022/05/29 09:20:54;;;;;;;8.23;2.40;;;16.00;61.10;;;;;;21081999;28;20727;-70
2022/05/29 09:31:10;;;;;;;9.07;3.07;;;15.90;59.40;;;;;;21081216;28;20250;-66
2022/05/29 09:41:24;;;;;;;4.90;1.90;;;16.30;58.60;;;;;;21080946;28;20252;-69
2022/05/29 09:51:30;;;;;;;3.90;1.57;;;16.50;57.20;;;;;;21078739;28;20226;-61
2022/05/29 10:01:42;;;;;;;5.37;1.50;;;16.90;54.80;;;;;;21053443;28;20211;-70
2022/05/29 10:11:53;;;;;;;5.97;1.60;;;16.90;52.80;;;;;;21057037;28;20294;-63
2022/05/29 10:21:56;;;;;;;5.20;1.70;;;16.70;51.70;;;;;;21001017;28;20207;-62
2022/05/29 10:31:59;;;;;;;4.60;1.73;;;16.70;51.60;;;;;;20994158;28;20317;-65
2022/05/29 10:42:01;;;;;;;6.33;2.23;;;16.50;51.70;;;;;;20996205;28;20503;-63
2022/05/29 10:52:30;;;;;;;7.27;2.10;;;17.00;51.70;;;;;;20942919;28;20228;-62
2022/05/29 11:03:23;;;;;;;5.73;1.90;;;17.00;51.90;;;;;;20911310;28;20204;-64
2022/05/29 11:13:37;;;;;;;5.47;1.90;;;17.10;50.50;;;;;;20961414;28;20631;-62
2022/05/29 11:23:50;;;;;;;7.60;2.30;;;17.10;49.80;;;;;;21045971;28;20229;-69
2022/05/29 11:34:13;;;;;;;9.83;4.53;;;17.10;49.70;;;;;;21076815;28;20213;-63
2022/05/29 11:44:46;;;;;;;4.77;1.77;;;17.20;49.40;;;;;;21016798;28;20233;-64
2022/05/29 11:54:59;;;;;;;7.90;2.07;;;17.00;48.40;;;;;;21028754;28;20210;-59
2022/05/29 12:05:03;;;;;;;5.10;1.70;;;17.40;50.50;;;;;;21070445;28;20240;-61
2022/05/29 12:15:26;;;;;;;4.90;1.73;;;17.70;51.20;;;;;;21012374;28;20748;-60
2022/05/29 12:25:49;;;;;;;4.27;1.70;;;17.60;49.70;;;;;;21022980;28;20248;-64
2022/05/29 12:36:38;;;;;;;6.63;2.50;;;17.30;50.50;;;;;;21046023;28;20203;-66
2022/05/29 12:47:04;;;;;;;6.33;4.33;;;17.10;51.20;;;;;;21004548;28;20257;-58
2022/05/29 12:57:29;;;;;;;4.13;1.80;;;16.80;50.80;;;;;;21045584;28;20200;-59
2022/05/29 13:08:07;;;;;;;4.80;2.90;;;16.90;49.30;;;;;;21038954;28;20327;-59
2022/05/29 13:18:09;;;;;;;4.40;1.60;;;17.00;47.20;;;;;;20998647;28;20211;-61
2022/05/29 13:28:48;;;;;;;4.27;1.70;;;17.00;45.60;;;;;;20999208;28;20250;-61
2022/05/29 13:38:50;;;;;;;5.23;1.33;;;17.10;45.90;;;;;;20998684;28;20208;-61
2022/05/29 13:49:21;;;;;;;4.73;1.27;;;17.10;45.80;;;;;;21025513;28;20235;-61
2022/05/29 14:10:15;;;;;;;5.17;1.57;;;17.30;46.00;;;;;;21079383;28;20585;-61
2022/05/29 14:20:42;;;;;;;3.50;1.57;;;17.40;46.00;;;;;;21078514;28;20202;-62
2022/05/29 14:31:22;;;;;;;4.40;1.73;;;17.30;47.10;;;;;;21078047;28;20244;-64
2022/05/29 14:41:36;;;;;;;4.53;1.40;;;17.10;50.20;;;;;;21077829;28;20236;-63
2022/05/29 14:52:01;;;;;;;3.90;1.60;;;17.10;50.60;;;;;;21077356;28;20569;-68
2022/05/29 15:02:21;;;;;;;4.17;1.80;;;17.20;50.20;;;;;;21076628;28;20207;-65
2022/05/29 15:12:30;;;;;;;2.13;1.30;;;17.30;50.70;;;;;;21087773;28;20341;-66
2022/05/29 15:33:01;;;;;;;4.20;1.20;;;17.00;51.30;;;;;;21091086;28;20230;-64
2022/05/29 15:43:24;;;;;;;3.13;1.33;;;16.80;51.90;;;;;;21089832;28;20252;-67
2022/05/29 15:54:03;;;;;;;2.60;1.40;;;16.80;52.40;;;;;;20953952;28;20636;-71
2022/05/29 16:04:05;;;;;;;2.60;1.30;;;16.80;52.30;;;;;;20921307;28;20760;-72
2022/05/29 16:14:07;;;;;;;2.20;1.33;;;16.90;52.40;;;;;;20921625;28;20306;-65
2022/05/29 16:24:36;;;;;;;3.80;1.43;;;17.00;52.50;;;;;;20920713;28;20315;-65
2022/05/29 16:34:56;;;;;;;5.07;1.50;;;17.00;52.70;;;;;;20920390;28;20211;-77
2022/05/29 16:55:32;;;;;;;3.70;1.33;;;17.00;53.00;;;;;;20919286;28;20204;-64
2022/05/29 17:05:43;;;;;;;2.23;1.33;;;17.10;53.00;;;;;;20920398;28;20247;-63
2022/05/29 17:15:47;;;;;;;2.23;1.30;;;17.10;53.40;;;;;;20918254;28;20249;-67
2022/05/29 17:25:53;;;;;;;2.17;1.67;;;17.40;53.70;;;;;;20916763;28;20277;-63
2022/05/29 17:36:01;;;;;;;4.00;1.63;;;17.40;53.80;;;;;;20913035;28;20607;-62
2022/05/29 17:46:22;;;;;;;3.57;1.50;;;17.50;54.30;;;;;;20912036;28;20288;-62
2022/05/29 17:56:27;;;;;;;4.43;1.90;;;18.00;52.50;;;;;;20992235;28;20210;-67
2022/05/29 18:06:29;;;;;;;2.60;1.40;;;17.70;51.60;;;;;;20994567;28;20231;-66
2022/05/29 18:16:31;;;;;;;2.67;1.40;;;17.20;51.40;;;;;;20995382;28;20266;-65
2022/05/29 18:26:35;;;;;;;10.80;1.97;;;16.80;51.70;;;;;;20995098;28;20252;-60
2022/05/29 18:36:37;;;;;;;5.20;1.70;;;16.50;52.70;;;;;;20994397;28;20656;-65
2022/05/29 18:46:40;;;;;;;4.47;2.20;;;16.20;53.50;;;;;;21006102;28;20238;-67
2022/05/29 18:56:43;;;;;;;3.77;1.57;;;15.90;55.10;;;;;;21007629;28;20290;-67
2022/05/29 19:06:45;;;;;;;4.30;1.50;;;15.80;55.60;;;;;;21007396;28;20230;-68
2022/05/29 19:16:47;;;;;;;2.97;1.60;;;15.70;55.00;;;;;;21006330;28;20664;-66
2022/05/29 19:26:49;;;;;;;3.57;1.40;;;15.60;55.20;;;;;;21006020;28;20293;-62
2022/05/29 19:36:51;;;;;;;3.40;1.70;;;15.40;56.00;;;;;;21005170;28;20569;-65
2022/05/29 19:46:53;;;;;;;4.87;3.13;;;15.30;56.30;;;;;;21003769;28;20235;-61
2022/05/29 19:56:54;;;;;;;3.73;1.93;;;15.10;56.60;;;;;;20919140;28;20656;-61
2022/05/29 20:06:56;;;;;;;2.83;1.77;;;15.00;57.00;;;;;;20919597;28;20238;-61
2022/05/29 20:16:58;;;;;;;5.93;2.53;;;14.90;57.30;;;;;;20919357;28;20210;-61
2022/05/29 20:27:01;;;;;;;3.83;2.20;;;14.70;58.20;;;;;;20918458;28;20249;-60
2022/05/29 20:37:06;;;;;;;3.77;2.27;;;14.70;58.70;;;;;;20917489;28;20210;-61
2022/05/29 20:57:39;;;;;;;3.03;2.50;;;14.30;60.20;;;;;;20915298;28;20563;-61
2022/05/29 21:07:41;;;;;;;6.43;2.70;;;13.90;61.30;;;;;;20914212;28;20247;-66
2022/05/29 21:17:43;;;;;;;4.87;2.90;;;13.70;62.00;;;;;;20914225;28;20214;-65
2022/05/29 21:27:44;;;;;;;3.77;2.50;;;13.60;63.40;;;;;;20913706;28;20258;-62
2022/05/29 21:37:52;;;;;;;4.40;2.40;;;13.30;63.60;;;;;;20915466;28;20204;-61
2022/05/29 21:47:54;;;;;;;2.80;2.23;;;13.10;64.40;;;;;;20912766;28;20715;-63
2022/05/29 21:57:55;;;;;;;3.27;2.20;;;12.90;64.60;;;;;;20990373;28;20269;-62
2022/05/29 22:07:57;;;;;;;3.80;2.17;;;12.80;65.20;;;;;;20996197;28;20232;-60
2022/05/29 22:17:59;;;;;;;3.47;2.10;;;12.60;65.90;;;;;;20973338;28;20616;-64
2022/05/29 22:28:01;;;;;;;2.47;2.20;;;12.40;66.40;;;;;;20975413;28;20261;-60
2022/05/29 22:38:04;;;;;;;3.87;2.37;;;12.30;67.10;;;;;;20995087;28;20621;-66
2022/05/29 22:48:33;;;;;;;3.30;2.20;;;12.00;67.80;;;;;;20994238;28;20246;-59
2022/05/29 22:58:35;;;;;;;3.97;2.53;;;11.80;68.60;;;;;;20994343;28;20608;-59
2022/05/29 23:08:37;;;;;;;2.40;2.20;;;11.60;69.60;;;;;;20995361;28;20242;-58
2022/05/29 23:18:39;;;;;;;2.77;2.03;;;11.40;70.60;;;;;;20993668;28;20693;-61
2022/05/29 23:28:41;;;;;;;2.10;1.90;;;11.40;71.30;;;;;;20996241;28;20725;-70
2022/05/29 23:38:43;;;;;;;2.30;2.00;;;11.20;71.50;;;;;;21006620;28;20225;-69
2022/05/29 23:48:47;;;;;;;3.37;2.30;;;11.20;71.90;;;;;;21007050;28;20238;-59
2022/05/29 23:58:49;;;;;;;4.03;2.50;;;11.00;72.50;;;;;;21004929;28;20205;-63
